Time;durP1;ratioP1;P1;durP2;ratioP2;P2;SDS_P1;SDS_P2;PMS_P1;PMS_P2;Temp;Humidity;BMP_temperature;BMP_pressure;BME280_temperature;BME280_humidity;BME280_pressure;Samples;Min_cycle;Max_cycle;Signal;HPM_P1;HPM_P2
2023/07/22 00:00:25;;;;;;;2.30;0.70;;;;;;;16.59;75.47;99654.91;10529400;28;20037;-74
2023/07/22 00:05:28;;;;;;;2.25;0.70;;;;;;;16.66;75.14;99652.41;10528770;28;20048;-74
2023/07/22 00:10:30;;;;;;;2.15;0.93;;;;;;;16.70;74.57;99650.56;10529088;28;20037;-74
2023/07/22 00:15:33;;;;;;;0.82;0.43;;;;;;;16.65;75.40;99658.25;10528805;28;20040;-74
2023/07/22 00:20:35;;;;;;;1.98;0.80;;;;;;;16.91;74.38;99666.25;10528935;28;20545;-74
2023/07/22 00:25:37;;;;;;;2.47;0.70;;;;;;;16.86;74.84;99667.31;10528437;28;20521;-74
2023/07/22 00:30:40;;;;;;;2.70;0.88;;;;;;;16.75;75.13;99671.69;10527705;28;20055;-74
2023/07/22 00:35:42;;;;;;;2.67;1.02;;;;;;;16.66;75.20;99665.41;10510355;28;20049;-75
2023/07/22 00:40:45;;;;;;;1.38;0.80;;;;;;;16.54;75.71;99669.81;10510656;28;20045;-74
2023/07/22 00:45:47;;;;;;;1.40;1.05;;;;;;;16.51;76.15;99666.91;10477056;28;20517;-74
2023/07/22 00:50:49;;;;;;;2.67;0.93;;;;;;;16.52;75.43;99665.75;10494303;28;20036;-74
2023/07/22 00:55:51;;;;;;;3.60;1.00;;;;;;;16.66;75.62;99665.41;10510630;28;20052;-74
2023/07/22 01:00:54;;;;;;;1.52;0.80;;;;;;;16.76;74.51;99660.25;10509922;28;20493;-74
2023/07/22 01:05:58;;;;;;;0.93;0.70;;;;;;;16.67;74.79;99661.53;10509757;28;20044;-74
2023/07/22 01:11:00;;;;;;;1.70;0.70;;;;;;;16.61;75.33;99658.16;10493358;28;20490;-74
2023/07/22 01:16:03;;;;;;;1.73;0.88;;;;;;;16.57;75.67;99663.56;10526389;28;20495;-74
2023/07/22 01:21:06;;;;;;;1.08;0.85;;;;;;;16.49;75.64;99658.16;10509328;28;20040;-74
2023/07/22 01:26:08;;;;;;;2.03;0.90;;;;;;;16.64;74.95;99674.06;10502078;28;20044;-74
2023/07/22 01:31:10;;;;;;;2.00;0.90;;;;;;;16.36;76.18;99668.41;10568642;28;20340;-74
2023/07/22 01:36:13;;;;;;;1.88;0.90;;;;;;;16.50;75.76;99674.41;10550445;28;20048;-74
2023/07/22 01:41:15;;;;;;;1.58;0.77;;;;;;;16.33;76.34;99663.56;10568405;28;20213;-74
2023/07/22 01:46:17;;;;;;;2.17;0.98;;;;;;;16.30;76.54;99675.28;10523434;28;20060;-75
2023/07/22 01:51:19;;;;;;;2.45;1.08;;;;;;;16.40;76.63;99665.75;10508361;28;20066;-74
2023/07/22 01:56:21;;;;;;;3.05;1.00;;;;;;;16.47;76.70;99672.31;10508541;28;20051;-74
2023/07/22 02:01:24;;;;;;;2.63;1.20;;;;;;;16.68;75.52;99654.84;10526268;28;20051;-74
2023/07/22 02:06:27;;;;;;;3.15;1.02;;;;;;;16.54;75.89;99678.13;10508100;28;20538;-74
2023/07/22 02:11:29;;;;;;;1.60;1.00;;;;;;;16.48;75.98;99685.00;10491777;28;20406;-74
2023/07/22 02:16:31;;;;;;;3.15;1.55;;;;;;;16.61;75.56;99685.84;10527043;28;20052;-74
2023/07/22 02:21:33;;;;;;;1.95;1.20;;;;;;;16.62;74.92;99689.41;10508176;28;20037;-74
2023/07/22 02:26:36;;;;;;;2.50;0.75;;;;;;;16.57;75.26;99687.69;10531563;28;20048;-74
2023/07/22 02:31:39;;;;;;;1.85;0.80;;;;;;;16.58;75.14;99692.06;10533947;28;20045;-74
2023/07/22 02:36:41;;;;;;;1.95;0.93;;;;;;;16.47;75.11;99686.16;10532941;28;20051;-74
2023/07/22 02:41:43;;;;;;;1.50;0.85;;;;;;;16.43;75.01;99676.94;10514838;28;20048;-75
2023/07/22 02:46:46;;;;;;;2.17;1.23;;;;;;;16.34;75.44;99687.31;10515202;28;20048;-74
2023/07/22 02:51:48;;;;;;;1.00;0.90;;;;;;;16.44;75.24;99680.50;10532266;28;20052;-73
2023/07/22 02:56:50;;;;;;;1.90;1.15;;;;;;;16.43;75.00;99685.25;10532313;28;20044;-74
2023/07/22 03:01:52;;;;;;;2.53;1.10;;;;;;;16.58;73.68;99692.88;10532153;28;20395;-74
2023/07/22 03:06:55;;;;;;;3.53;1.08;;;;;;;16.67;73.90;99692.81;10514248;28;20037;-74
2023/07/22 03:11:57;;;;;;;1.35;0.93;;;;;;;16.77;73.41;99703.44;10531949;28;20490;-74
2023/07/22 03:16:59;;;;;;;3.28;1.30;;;;;;;16.66;73.73;99702.25;10531218;28;20043;-74
2023/07/22 03:22:02;;;;;;;1.35;0.98;;;;;;;16.87;73.57;99693.88;10531605;28;20052;-74
2023/07/22 03:27:05;;;;;;;3.22;1.27;;;;;;;17.00;72.99;99695.47;10531046;28;20502;-74
2023/07/22 03:32:07;;;;;;;1.58;1.27;;;;;;;16.71;74.22;99698.47;10531520;28;20040;-74
2023/07/22 03:37:09;;;;;;;1.55;1.15;;;;;;;16.72;74.32;99703.66;10511922;28;20375;-74
2023/07/22 03:42:11;;;;;;;2.65;1.30;;;;;;;17.13;73.09;99708.16;10512413;28;20056;-74
2023/07/22 03:47:13;;;;;;;1.27;1.17;;;;;;;17.03;73.56;99710.63;10515553;28;20051;-74
2023/07/22 03:52:18;;;;;;;1.40;0.90;;;;;;;17.39;72.34;99707.81;10530292;28;20060;-74
2023/07/22 03:57:25;;;;;;;1.13;1.02;;;;;;;17.27;72.59;99716.13;10529580;28;20048;-74
2023/07/22 04:02:27;;;;;;;;;;;;;;;17.10;73.57;99713.59;10529994;28;20044;-75
2023/07/22 04:07:29;;;;;;;1.85;1.13;;;;;;;17.12;72.85;99709.31;10494926;28;19921;-74
2023/07/22 04:12:32;;;;;;;3.05;1.00;;;;;;;16.97;73.55;99721.09;10529250;28;20052;-74
2023/07/22 04:17:34;;;;;;;1.40;0.95;;;;;;;17.09;73.17;99714.75;10528902;28;20059;-74
2023/07/22 04:22:36;;;;;;;1.15;1.00;;;;;;;17.28;72.86;99722.47;10528588;28;20417;-74
2023/07/22 04:27:39;;;;;;;1.30;1.20;;;;;;;17.34;72.91;99723.84;10511127;28;20052;-74
2023/07/22 04:32:41;;;;;;;1.42;0.98;;;;;;;17.14;73.47;99720.06;10528143;28;20064;-74
2023/07/22 04:37:44;;;;;;;1.95;1.20;;;;;;;17.30;72.88;99732.06;10532255;28;20036;-74
2023/07/22 04:42:46;;;;;;;2.50;1.00;;;;;;;17.30;72.93;99729.28;10528076;28;20057;-74
2023/07/22 04:47:48;;;;;;;2.65;1.10;;;;;;;17.56;71.82;99740.00;10526753;28;20075;-74
2023/07/22 04:52:51;;;;;;;1.77;1.00;;;;;;;17.32;72.35;99732.53;10530897;28;20048;-74
2023/07/22 04:57:54;;;;;;;1.25;1.10;;;;;;;17.31;72.37;99738.41;10527869;28;20411;-74
2023/07/22 05:02:56;;;;;;;1.20;1.10;;;;;;;17.31;72.36;99743.97;10527494;28;20056;-74
2023/07/22 05:07:58;;;;;;;1.30;1.10;;;;;;;17.19;72.65;99747.56;10527892;28;20499;-74
2023/07/22 05:13:00;;;;;;;5.43;1.60;;;;;;;17.25;73.37;99746.16;10559554;28;20032;-74
2023/07/22 05:18:02;;;;;;;2.05;1.40;;;;;;;17.57;72.59;99749.94;10551561;28;20450;-74
2023/07/22 05:23:05;;;;;;;1.23;1.00;;;;;;;17.67;71.92;99743.09;10568736;28;20043;-74
2023/07/22 05:28:08;;;;;;;1.05;1.05;;;;;;;17.86;71.53;99743.31;10563915;28;20040;-74
2023/07/22 05:33:10;;;;;;;3.83;1.30;;;;;;;17.86;71.22;99750.81;10568635;28;20038;-74
2023/07/22 05:38:12;;;;;;;3.65;1.20;;;;;;;18.29;69.94;99752.88;10568397;28;20596;-74
2023/07/22 05:43:14;;;;;;;4.75;1.20;;;;;;;18.18;69.59;99758.09;10565566;28;20060;-74
2023/07/22 05:48:16;;;;;;;2.88;1.27;;;;;;;18.13;69.83;99766.69;10528208;28;20049;-74
2023/07/22 05:53:18;;;;;;;1.42;1.00;;;;;;;18.04;70.23;99757.69;10508258;28;20045;-74
2023/07/22 05:58:20;;;;;;;1.58;1.02;;;;;;;17.87;71.38;99763.53;10509075;28;20110;-74
2023/07/22 06:03:22;;;;;;;3.10;1.15;;;;;;;19.02;68.75;99755.22;10534347;28;20055;-74
2023/07/22 06:08:25;;;;;;;3.88;1.60;;;;;;;19.17;66.16;99748.03;10534277;28;20506;-74
2023/07/22 06:13:27;;;;;;;2.78;1.10;;;;;;;19.50;64.65;99754.00;10506753;28;20466;-74
2023/07/22 06:18:30;;;;;;;2.45;1.73;;;;;;;18.94;66.79;99759.81;10491243;28;20040;-74
2023/07/22 06:23:32;;;;;;;1.50;1.17;;;;;;;19.39;65.94;99761.28;10490874;28;20646;-74
2023/07/22 06:28:34;;;;;;;4.50;1.40;;;;;;;20.36;61.97;99767.00;10543438;28;20059;-74
2023/07/22 06:33:36;;;;;;;1.45;1.10;;;;;;;19.32;65.28;99766.69;10522375;28;20044;-74
2023/07/22 06:38:38;;;;;;;1.48;1.00;;;;;;;18.73;67.89;99764.00;10532692;28;20525;-74
2023/07/22 06:43:41;;;;;;;2.15;1.15;;;;;;;18.80;67.81;99770.56;10532927;28;20051;-74
2023/07/22 06:48:43;;;;;;;1.30;1.17;;;;;;;18.86;67.43;99771.91;10532143;28;20422;-74
2023/07/22 06:53:46;;;;;;;2.88;1.30;;;;;;;19.55;65.42;99776.00;10531884;28;20123;-74
2023/07/22 06:58:48;;;;;;;3.13;1.15;;;;;;;18.76;66.52;99778.00;10532063;28;20049;-73
2023/07/22 07:03:50;;;;;;;2.35;1.20;;;;;;;18.08;68.64;99776.09;10532658;28;20055;-73
2023/07/22 07:08:52;;;;;;;3.40;1.10;;;;;;;18.54;67.70;99784.09;10531747;28;20043;-74
2023/07/22 07:13:55;;;;;;;3.13;1.13;;;;;;;19.73;64.78;99784.75;10512631;28;20112;-74
2023/07/22 07:18:58;;;;;;;3.72;1.30;;;;;;;18.84;66.30;99788.13;10531979;28;20051;-74
2023/07/22 07:24:01;;;;;;;1.38;1.13;;;;;;;18.73;66.43;99794.56;10531058;28;20064;-74
2023/07/22 07:29:03;;;;;;;5.40;1.73;;;;;;;18.51;67.26;99802.28;10513059;28;20051;-74
2023/07/22 07:34:05;;;;;;;3.47;1.42;;;;;;;18.35;69.15;99801.44;10531585;28;20056;-74
2023/07/22 07:39:08;;;;;;;3.20;1.40;;;;;;;18.01;70.09;99814.75;10530596;28;20048;-74
2023/07/22 07:44:10;;;;;;;2.38;0.98;;;;;;;19.94;63.38;99805.88;10530326;28;20143;-74
2023/07/22 07:49:12;;;;;;;4.68;2.50;;;;;;;20.85;60.99;99802.59;10530580;28;20048;-74
2023/07/22 07:54:14;;;;;;;3.35;1.10;;;;;;;20.75;57.56;99804.81;10529195;28;20044;-74
2023/07/22 07:59:16;;;;;;;2.13;1.08;;;;;;;20.13;59.58;99812.31;10512032;28;20048;-74
2023/07/22 08:04:19;;;;;;;3.03;1.30;;;;;;;19.94;60.61;99806.69;10557054;28;20048;-74
2023/07/22 08:09:21;;;;;;;0.80;0.80;;;;;;;19.36;62.08;99814.06;10538201;28;20044;-74
2023/07/22 08:14:23;;;;;;;5.70;1.20;;;;;;;20.23;60.70;99810.91;10511202;28;20040;-74
2023/07/22 08:19:25;;;;;;;2.03;1.13;;;;;;;21.16;58.41;99821.06;10528637;28;20053;-74
2023/07/22 08:24:28;;;;;;;2.45;1.23;;;;;;;20.55;59.23;99825.53;10528389;28;20048;-74
2023/07/22 08:29:30;;;;;;;1.15;0.85;;;;;;;20.25;59.19;99830.84;10528566;28;20059;-74
2023/07/22 08:34:32;;;;;;;3.35;1.15;;;;;;;19.31;62.04;99842.16;10528146;28;20045;-74
2023/07/22 08:39:34;;;;;;;1.40;0.90;;;;;;;20.51;59.56;99843.38;10527866;28;20047;-74
2023/07/22 08:44:38;;;;;;;2.75;1.10;;;;;;;22.13;53.78;99843.78;10527775;28;20544;-73
2023/07/22 08:49:43;;;;;;;4.47;1.00;;;;;;;21.88;53.73;99857.38;10528042;28;20044;-74
2023/07/22 08:54:46;;;;;;;2.10;0.90;;;;;;;20.51;56.77;99866.47;10509033;28;20509;-74
2023/07/22 08:59:49;;;;;;;3.05;1.65;;;;;;;19.94;58.42;99861.56;10527490;28;20036;-74
2023/07/22 09:04:51;;;;;;;2.80;1.30;;;;;;;20.42;57.15;99865.84;10527138;28;20071;-74
2023/07/22 09:09:53;;;;;;;1.00;0.80;;;;;;;20.43;56.98;99867.47;10527429;28;20126;-74
2023/07/22 09:14:57;;;;;;;3.78;1.10;;;;;;;21.78;52.91;99852.41;10509147;28;20056;-74
2023/07/22 09:19:59;;;;;;;2.67;1.00;;;;;;;21.56;52.68;99859.66;10508949;28;20047;-74
2023/07/22 09:25:18;;;;;;;3.03;1.48;;;;;;;20.76;54.90;99881.69;10509735;28;20047;-74
2023/07/22 09:30:34;;;;;;;3.78;1.65;;;;;;;21.38;54.00;99875.31;10509260;28;20036;-74
2023/07/22 09:35:42;;;;;;;2.80;0.82;;;;;;;21.45;54.05;99876.22;10513667;28;20498;-74
2023/07/22 09:40:44;;;;;;;2.15;1.02;;;;;;;20.40;55.36;99890.47;10535225;28;20036;-74
2023/07/22 09:45:48;;;;;;;1.10;1.00;;;;;;;20.41;55.56;99898.50;10534799;28;20134;-74
2023/07/22 09:50:57;;;;;;;2.45;1.10;;;;;;;19.95;55.45;99897.41;10500525;28;20118;-74
2023/07/22 09:56:05;;;;;;;3.42;0.93;;;;;;;20.10;55.78;99885.44;10534978;28;20053;-74
2023/07/22 10:01:07;;;;;;;1.67;1.20;;;;;;;20.13;55.94;99895.88;10534027;28;20052;-73
2023/07/22 10:06:10;;;;;;;4.10;1.27;;;;;;;19.98;57.02;99913.41;10516343;28;20052;-73
2023/07/22 10:11:13;;;;;;;3.72;1.20;;;;;;;19.97;56.15;99911.81;10533773;28;20040;-74
2023/07/22 10:16:16;;;;;;;1.65;1.45;;;;;;;20.23;55.30;99921.53;10533656;28;20064;-73
2023/07/22 10:21:18;;;;;;;2.45;1.40;;;;;;;20.03;55.24;99915.91;10515662;28;20094;-74
2023/07/22 10:26:20;;;;;;;2.22;1.00;;;;;;;20.14;55.59;99914.19;10533258;28;20537;-75
2023/07/22 10:31:22;;;;;;;3.50;1.35;;;;;;;20.72;54.00;99922.66;10532882;28;20044;-73
2023/07/22 10:36:29;;;;;;;2.15;1.15;;;;;;;20.41;53.11;99906.03;10533099;28;20048;-74
2023/07/22 10:41:33;;;;;;;1.48;1.10;;;;;;;20.15;52.14;99909.44;10515175;28;20040;-75
2023/07/22 10:46:40;;;;;;;3.35;1.35;;;;;;;20.34;52.34;99911.44;10532249;28;20064;-75
2023/07/22 10:51:49;;;;;;;;;;;;;;;20.39;53.29;99922.31;10532828;28;20052;-75
2023/07/22 10:56:51;;;;;;;1.00;0.90;;;;;;;20.52;53.44;99934.16;10532924;28;19921;-75
2023/07/22 11:01:53;;;;;;;1.95;1.40;;;;;;;20.40;53.79;99921.13;10531997;28;20468;-75
2023/07/22 11:06:57;;;;;;;2.05;1.38;;;;;;;20.47;54.51;99924.09;10533678;28;20043;-74
2023/07/22 11:12:05;;;;;;;2.72;1.00;;;;;;;20.36;53.50;99932.19;10532066;28;20568;-74
2023/07/22 11:17:11;;;;;;;2.22;1.13;;;;;;;20.46;54.09;99920.50;10513870;28;20048;-74
2023/07/22 11:22:13;;;;;;;5.20;1.90;;;;;;;20.18;54.78;99925.41;10514617;28;20040;-74
2023/07/22 11:27:15;;;;;;;1.48;1.30;;;;;;;20.25;54.97;99921.97;10530825;28;20059;-74
2023/07/22 11:32:21;;;;;;;2.03;1.52;;;;;;;20.20;53.89;99928.66;10530871;28;20037;-73
2023/07/22 11:37:23;;;;;;;2.08;1.15;;;;;;;;;;10530113;28;20055;-73
2023/07/22 11:42:24;;;;;;;2.15;1.10;;;;;;;;;;10530140;28;20032;-74
2023/07/22 11:47:31;;;;;;;1.40;0.98;;;;;;;20.22;53.46;99928.28;10530201;28;20036;-74
2023/07/22 11:52:33;;;;;;;1.45;1.05;;;;;;;20.38;52.15;99940.19;10512341;28;20045;-74
2023/07/22 11:57:35;;;;;;;1.65;1.30;;;;;;;20.42;52.87;99929.97;10529299;28;20056;-74
2023/07/22 12:02:37;;;;;;;3.00;1.20;;;;;;;20.57;52.90;99931.88;10529609;28;20486;-74
2023/07/22 12:07:40;;;;;;;3.25;1.15;;;;;;;20.65;52.24;99918.88;10529418;28;20060;-74
2023/07/22 12:12:48;;;;;;;3.35;1.23;;;;;;;20.53;52.41;99933.78;10529370;28;20047;-75
2023/07/22 12:17:57;;;;;;;2.58;1.30;;;;;;;20.49;52.88;99926.53;10528944;28;20044;-75
2023/07/22 12:22:59;;;;;;;1.98;1.10;;;;;;;20.37;52.55;99930.22;10528814;28;20130;-74
2023/07/22 12:28:01;;;;;;;3.22;1.63;;;;;;;20.50;51.04;99926.16;10529077;28;20077;-74
2023/07/22 12:33:04;;;;;;;2.85;1.33;;;;;;;20.77;49.76;99924.34;10528611;28;20502;-73
2023/07/22 12:38:06;;;;;;;2.15;1.02;;;;;;;20.56;50.20;99923.88;10528153;28;20639;-73
2023/07/22 12:43:08;;;;;;;2.13;1.30;;;;;;;20.52;49.96;99909.88;10509897;28;20044;-74
2023/07/22 12:48:11;;;;;;;2.97;1.17;;;;;;;20.47;50.71;99915.72;10527865;28;20036;-73
2023/07/22 12:53:13;;;;;;;1.95;1.10;;;;;;;20.68;50.01;99893.91;10527649;28;20052;-75
2023/07/22 12:58:15;;;;;;;3.05;1.10;;;;;;;20.81;49.34;99910.44;10525276;28;20048;-75
2023/07/22 13:03:17;;;;;;;2.67;1.58;;;;;;;20.67;48.39;99911.81;10523645;28;20143;-74
2023/07/22 13:08:20;;;;;;;3.65;1.45;;;;;;;20.48;48.76;99925.72;10529827;28;20136;-74
2023/07/22 13:13:22;;;;;;;4.35;1.10;;;;;;;20.48;48.64;99917.38;10527031;28;20049;-74
2023/07/22 13:18:24;;;;;;;1.38;1.10;;;;;;;20.67;47.52;99922.94;10532948;28;20578;-75
2023/07/22 13:23:26;;;;;;;1.30;1.00;;;;;;;20.45;47.12;99924.44;10526902;28;20115;-75
2023/07/22 13:28:29;;;;;;;2.80;1.20;;;;;;;20.43;47.92;99937.94;10530235;28;20043;-74
2023/07/22 13:33:31;;;;;;;1.58;1.00;;;;;;;20.53;45.55;99925.44;10526922;28;20056;-74
2023/07/22 13:38:33;;;;;;;1.17;0.82;;;;;;;20.33;46.87;99930.16;10526735;28;20483;-74
2023/07/22 13:43:35;;;;;;;1.00;0.82;;;;;;;20.31;46.26;99931.69;10527243;28;20043;-75
2023/07/22 13:48:37;;;;;;;3.30;0.82;;;;;;;20.18;47.11;99931.78;10527043;28;20040;-75
2023/07/22 13:53:40;;;;;;;3.17;1.15;;;;;;;20.26;46.63;99926.38;10526586;28;20044;-75
2023/07/22 13:58:42;;;;;;;3.03;1.20;;;;;;;20.22;47.43;99931.06;10526332;28;20391;-74
2023/07/22 14:03:44;;;;;;;1.73;1.30;;;;;;;20.07;46.25;99935.50;10508897;28;20047;-74
2023/07/22 14:08:46;;;;;;;2.05;1.05;;;;;;;20.03;47.45;99935.41;10526353;28;20507;-74
2023/07/22 14:13:48;;;;;;;1.25;1.10;;;;;;;20.00;47.26;99936.16;10530570;28;20197;-74
2023/07/22 14:18:52;;;;;;;1.35;1.15;;;;;;;20.18;47.48;99937.38;10525949;28;20048;-75
2023/07/22 14:23:55;;;;;;;1.10;0.90;;;;;;;20.25;46.62;99935.91;10533581;28;20052;-74
2023/07/22 14:28:57;;;;;;;2.40;1.10;;;;;;;20.15;46.58;99926.16;10533434;28;20037;-75
2023/07/22 14:33:59;;;;;;;2.08;1.00;;;;;;;;;;10515314;28;20048;-75
2023/07/22 14:39:01;;;;;;;1.40;1.10;;;;;;;20.01;47.62;99931.38;10532958;28;20040;-75
2023/07/22 14:44:03;;;;;;;2.03;1.27;;;;;;;20.00;48.14;99936.16;10518869;28;20064;-75
2023/07/22 14:49:09;;;;;;;2.45;1.20;;;;;;;19.96;47.32;99928.84;10532647;28;20501;-75
2023/07/22 14:54:11;;;;;;;4.07;1.80;;;;;;;19.97;47.93;99931.31;10514152;28;20044;-74
2023/07/22 14:59:15;;;;;;;1.38;0.80;;;;;;;19.85;47.38;99935.00;10532480;28;20053;-74
2023/07/22 15:04:17;;;;;;;2.05;1.38;;;;;;;19.72;49.46;99929.88;10531852;28;20075;-75
2023/07/22 15:09:20;;;;;;;2.45;1.30;;;;;;;19.61;51.67;99939.91;10532120;28;20407;-74
2023/07/22 15:14:22;;;;;;;1.60;1.10;;;;;;;19.58;53.49;99939.47;10514619;28;20498;-74
2023/07/22 15:19:25;;;;;;;3.25;1.13;;;;;;;19.42;53.97;99932.25;10513491;28;20039;-74
2023/07/22 15:24:27;;;;;;;2.30;1.17;;;;;;;19.32;53.93;99944.72;10531776;28;20045;-74
2023/07/22 15:29:29;;;;;;;1.88;1.17;;;;;;;19.40;53.23;99940.16;10530968;28;20124;-74
2023/07/22 15:34:31;;;;;;;2.03;1.30;;;;;;;19.34;55.83;99947.16;10512128;28;20051;-74
2023/07/22 15:39:34;;;;;;;3.85;1.42;;;;;;;19.38;56.87;99950.84;10530102;28;20444;-74
2023/07/22 15:44:37;;;;;;;1.85;1.30;;;;;;;19.23;59.04;99949.63;10512372;28;20048;-74
2023/07/22 15:49:39;;;;;;;2.70;1.38;;;;;;;19.38;59.63;99954.41;10512449;28;20032;-74
2023/07/22 15:54:41;;;;;;;2.58;1.20;;;;;;;19.21;61.38;99960.31;10529856;28;20592;-74
2023/07/22 15:59:43;;;;;;;2.08;1.38;;;;;;;19.01;62.31;99959.38;10529647;28;20036;-74
2023/07/22 16:04:45;;;;;;;2.80;1.35;;;;;;;19.07;63.38;99962.69;10512121;28;20045;-74
2023/07/22 16:09:48;;;;;;;2.35;1.40;;;;;;;19.07;63.34;99951.56;10529423;28;20043;-74
2023/07/22 16:14:50;;;;;;;2.33;1.30;;;;;;;18.93;63.94;99955.59;10529869;28;20048;-74
2023/07/22 16:19:52;;;;;;;3.83;1.38;;;;;;;18.96;63.30;99957.66;10528981;28;20055;-74
2023/07/22 16:24:54;;;;;;;2.42;1.48;;;;;;;18.81;63.37;99955.63;10529073;28;20048;-74
2023/07/22 16:29:56;;;;;;;2.28;1.10;;;;;;;18.87;61.32;99962.53;10528605;28;20053;-74
2023/07/22 16:34:58;;;;;;;4.75;1.92;;;;;;;19.00;58.14;99971.66;10531641;28;20533;-73
2023/07/22 16:40:01;;;;;;;1.40;1.10;;;;;;;19.10;56.27;99973.13;10527527;28;20067;-74
2023/07/22 16:45:04;;;;;;;2.35;1.30;;;;;;;19.15;56.56;99973.69;10527689;28;20065;-73
2023/07/22 16:50:08;;;;;;;2.90;1.10;;;;;;;18.96;58.07;99973.53;10510603;28;20041;-74
2023/07/22 16:55:11;;;;;;;2.30;1.33;;;;;;;18.63;58.97;99970.97;10529312;28;20041;-74
2023/07/22 17:00:15;;;;;;;1.42;0.90;;;;;;;18.44;59.88;99973.53;10527611;28;20062;-74
2023/07/22 17:05:17;;;;;;;3.38;1.10;;;;;;;18.18;60.89;99977.47;10527520;28;20083;-74
2023/07/22 17:10:19;;;;;;;1.38;0.80;;;;;;;18.03;61.87;99986.50;10553610;28;20043;-73
2023/07/22 17:15:22;;;;;;;1.30;1.15;;;;;;;18.14;62.29;99990.44;10569191;28;20043;-74
2023/07/22 17:20:24;;;;;;;3.78;1.05;;;;;;;17.97;62.78;99979.56;10550976;28;20043;-74
2023/07/22 17:25:26;;;;;;;1.95;1.10;;;;;;;18.08;63.22;99970.44;10550863;28;20051;-74
2023/07/22 17:30:28;;;;;;;1.80;1.30;;;;;;;18.20;62.73;99972.38;10564032;28;20545;-74
2023/07/22 17:35:30;;;;;;;1.45;1.20;;;;;;;18.13;63.90;99974.94;10569332;28;20040;-74
2023/07/22 17:40:32;;;;;;;2.05;1.52;;;;;;;17.73;64.57;99981.19;10568554;28;20075;-74
2023/07/22 17:45:34;;;;;;;1.15;0.95;;;;;;;17.80;64.20;99979.81;10568976;28;20040;-74
2023/07/22 17:50:37;;;;;;;2.58;1.25;;;;;;;17.76;64.24;99986.03;10525451;28;20388;-74
2023/07/22 17:55:39;;;;;;;1.70;1.10;;;;;;;17.74;64.21;99984.78;10528600;28;20049;-74
2023/07/22 18:00:41;;;;;;;1.58;1.10;;;;;;;17.75;64.17;99978.88;10534722;28;20422;-74
2023/07/22 18:05:47;;;;;;;1.98;1.20;;;;;;;17.56;64.90;99978.59;10534069;28;20579;-74
2023/07/22 18:10:50;;;;;;;2.40;1.50;;;;;;;17.37;65.02;99986.63;10534218;28;20036;-74
2023/07/22 18:15:52;;;;;;;2.63;1.30;;;;;;;17.24;65.11;99976.66;10534290;28;20045;-74
2023/07/22 18:20:54;;;;;;;2.28;1.48;;;;;;;17.28;64.87;99974.81;10533803;28;20517;-74
2023/07/22 18:25:56;;;;;;;2.70;1.42;;;;;;;17.20;65.15;99967.41;10533612;28;20497;-74
2023/07/22 18:30:58;;;;;;;1.27;0.95;;;;;;;17.25;65.28;99970.75;10515211;28;20407;-74
2023/07/22 18:36:01;;;;;;;3.03;1.60;;;;;;;17.39;65.37;99976.00;10533011;28;20052;-74
2023/07/22 18:41:03;;;;;;;1.40;1.20;;;;;;;17.38;65.08;99974.38;10515683;28;20051;-74
2023/07/22 18:46:15;;;;;;;4.00;1.50;;;;;;;17.28;65.62;99964.53;10532827;28;20040;-75
2023/07/22 18:51:17;;;;;;;1.85;1.50;;;;;;;17.37;65.66;99967.22;10514922;28;20443;-75
2023/07/22 18:56:19;;;;;;;1.58;1.23;;;;;;;17.36;65.57;99968.38;10514794;28;20060;-75
2023/07/22 19:01:21;;;;;;;1.77;1.17;;;;;;;17.48;65.69;99968.38;10532559;28;20392;-75
2023/07/22 19:06:23;;;;;;;3.78;1.30;;;;;;;17.74;65.07;99970.91;10530942;28;20048;-75
2023/07/22 19:11:25;;;;;;;2.58;1.80;;;;;;;17.69;65.26;99974.69;10531779;28;20055;-75
2023/07/22 19:16:28;;;;;;;2.40;1.30;;;;;;;17.34;66.71;99968.69;10531758;28;20052;-74
2023/07/22 19:21:30;;;;;;;4.65;2.13;;;;;;;17.12;67.66;99967.13;10513841;28;20048;-74
2023/07/22 19:26:32;;;;;;;3.40;1.95;;;;;;;17.05;68.22;99980.75;10531197;28;20057;-74
2023/07/22 19:31:34;;;;;;;3.90;2.00;;;;;;;16.95;68.67;99980.34;10531218;28;20049;-74
2023/07/22 19:36:36;;;;;;;2.58;1.83;;;;;;;17.10;68.76;99980.53;10531497;28;20044;-74
2023/07/22 19:41:38;;;;;;;1.60;1.40;;;;;;;17.40;67.78;99966.53;10530410;28;20051;-74
2023/07/22 19:46:41;;;;;;;4.22;1.73;;;;;;;17.58;67.19;99972.69;10530540;28;20070;-74
2023/07/22 19:51:44;;;;;;;4.10;1.77;;;;;;;17.60;67.55;99965.66;10549459;28;20044;-74
2023/07/22 19:56:46;;;;;;;1.92;1.42;;;;;;;17.25;68.44;99967.19;10571890;28;20044;-74
2023/07/22 20:01:48;;;;;;;2.22;1.45;;;;;;;17.06;69.28;99971.28;10567540;28;20035;-74
2023/07/22 20:06:50;;;;;;;3.85;1.48;;;;;;;16.97;69.95;99976.09;10571648;28;20043;-74
2023/07/22 20:11:52;;;;;;;2.28;1.38;;;;;;;17.20;69.87;99976.53;10571377;28;20382;-74
2023/07/22 20:16:55;;;;;;;2.72;1.48;;;;;;;16.94;71.31;99978.72;10570658;28;20052;-74
2023/07/22 20:21:57;;;;;;;1.80;1.60;;;;;;;16.74;72.42;99972.06;10551374;28;20057;-75
2023/07/22 20:26:59;;;;;;;2.83;1.42;;;;;;;16.96;71.97;99977.22;10528904;28;20053;-74
2023/07/22 20:32:01;;;;;;;1.95;1.20;;;;;;;17.14;71.42;99961.25;10528666;28;20548;-74
2023/07/22 20:37:03;;;;;;;1.42;1.10;;;;;;;17.15;71.96;99960.09;10510751;28;20040;-75
2023/07/22 20:42:06;;;;;;;2.45;1.13;;;;;;;16.78;73.79;99976.56;10510974;28;20056;-74
2023/07/22 20:47:08;;;;;;;4.53;1.30;;;;;;;16.90;74.12;99970.28;10528034;28;20552;-75
2023/07/22 20:52:10;;;;;;;3.17;1.35;;;;;;;16.65;75.51;99968.50;10527971;28;20048;-74
2023/07/22 20:57:17;;;;;;;1.67;1.08;;;;;;;16.87;74.62;99968.19;10527650;28;20602;-74
2023/07/22 21:02:23;;;;;;;2.92;1.45;;;;;;;16.92;74.67;99967.97;10527895;28;20054;-75
2023/07/22 21:07:28;;;;;;;2.75;1.30;;;;;;;16.74;75.58;99961.78;10527445;28;20052;-74
2023/07/22 21:12:30;;;;;;;3.08;1.60;;;;;;;16.94;75.47;99959.31;10530558;28;20040;-75
2023/07/22 21:17:33;;;;;;;1.90;1.20;;;;;;;17.04;74.56;99943.09;10527331;28;20044;-74
2023/07/22 21:22:36;;;;;;;1.33;1.17;;;;;;;17.06;74.39;99951.06;10509857;28;20040;-74
2023/07/22 21:27:38;;;;;;;1.35;1.20;;;;;;;16.85;75.08;99959.41;10526972;28;20057;-74
2023/07/22 21:32:40;;;;;;;2.67;1.42;;;;;;;16.86;74.83;99959.06;10508607;28;20073;-75
2023/07/22 21:37:42;;;;;;;1.70;1.10;;;;;;;16.75;75.31;99949.56;10527095;28;20040;-74
2023/07/22 21:42:45;;;;;;;2.95;1.40;;;;;;;16.86;75.01;99944.41;10492826;28;20036;-74
2023/07/22 21:47:47;;;;;;;1.25;1.02;;;;;;;16.65;75.51;99940.81;10509158;28;20494;-75
2023/07/22 21:52:49;;;;;;;4.30;1.35;;;;;;;16.53;75.83;99942.38;10526625;28;20052;-74
2023/07/22 21:57:52;;;;;;;1.50;1.40;;;;;;;16.63;75.10;99951.41;10526368;28;20052;-75
2023/07/22 22:02:55;;;;;;;3.08;1.40;;;;;;;16.94;73.74;99937.97;10526462;28;20044;-74
2023/07/22 22:07:57;;;;;;;2.00;1.30;;;;;;;16.78;73.52;99942.50;10526157;28;20470;-75
2023/07/22 22:12:59;;;;;;;2.88;1.48;;;;;;;16.89;72.52;99946.50;10526202;28;20056;-75
2023/07/22 22:18:01;;;;;;;2.30;1.52;;;;;;;16.84;72.42;99944.75;10508488;28;20407;-74
2023/07/22 22:23:03;;;;;;;2.17;1.50;;;;;;;17.00;71.86;99947.69;10526792;28;20040;-74
2023/07/22 22:28:06;;;;;;;2.80;1.67;;;;;;;16.44;73.66;99949.13;10525904;28;20049;-75
2023/07/22 22:33:08;;;;;;;3.28;1.92;;;;;;;16.59;73.08;99951.28;10525680;28;20051;-74
2023/07/22 22:38:10;;;;;;;4.50;2.00;;;;;;;16.70;72.47;99954.50;10525603;28;20410;-74
2023/07/22 22:43:13;;;;;;;1.60;1.30;;;;;;;16.52;73.38;99965.69;10530335;28;20051;-74
2023/07/22 22:48:16;;;;;;;2.35;1.55;;;;;;;16.88;72.16;99958.75;10533418;28;20512;-74
2023/07/22 22:53:18;;;;;;;1.60;1.42;;;;;;;16.79;72.54;99958.78;10536840;28;20044;-74
2023/07/22 22:58:20;;;;;;;4.70;1.58;;;;;;;16.45;74.16;99959.03;10556885;28;20640;-74
2023/07/22 23:03:23;;;;;;;2.17;1.25;;;;;;;16.30;75.13;99952.13;10575353;28;20062;-75
2023/07/22 23:08:26;;;;;;;3.03;1.38;;;;;;;16.35;75.48;99951.16;10574509;28;20047;-75
2023/07/22 23:13:28;;;;;;;2.38;1.58;;;;;;;16.22;76.50;99955.78;10573971;28;20553;-74
2023/07/22 23:18:30;;;;;;;2.35;1.50;;;;;;;16.38;75.82;99959.59;10574371;28;20047;-75
2023/07/22 23:23:32;;;;;;;1.95;1.40;;;;;;;16.23;76.37;99960.19;10573326;28;20236;-75
2023/07/22 23:28:35;;;;;;;2.22;1.60;;;;;;;16.53;75.48;99961.75;10554931;28;20055;-74